createdAt,value
2022-10-05T00:01:34.737Z,100838.00
2022-10-05T00:04:18.700Z,100839.41
2022-10-05T00:06:51.341Z,100837.88
2022-10-05T00:09:21.371Z,100836.09
2022-10-05T00:11:50.028Z,100837.91
2022-10-05T00:14:36.799Z,100828.16
2022-10-05T00:17:05.388Z,100836.38
2022-10-05T00:19:38.483Z,100843.81
2022-10-05T00:22:16.940Z,100846.81
2022-10-05T00:24:45.924Z,100846.00
2022-10-05T00:27:27.767Z,100846.50
2022-10-05T00:30:01.276Z,100840.47
2022-10-05T00:32:28.585Z,100843.16
2022-10-05T00:34:57.788Z,100841.78
2022-10-05T00:37:24.777Z,100835.06
2022-10-05T00:39:51.703Z,100831.22
2022-10-05T00:42:49.380Z,100827.69
2022-10-05T00:45:27.563Z,100836.66
2022-10-05T00:48:06.413Z,100839.03
2022-10-05T00:51:03.293Z,100836.13
2022-10-05T00:53:54.675Z,100843.31
2022-10-05T00:57:03.118Z,100835.28
2022-10-05T00:59:58.659Z,100823.97
2022-10-05T01:02:50.150Z,100826.00
2022-10-05T01:05:43.610Z,100822.91
2022-10-05T01:09:10.555Z,100806.25
2022-10-05T01:12:25.556Z,100796.53
2022-10-05T01:15:13.535Z,100797.59
2022-10-05T01:17:55.369Z,100798.66
2022-10-05T01:21:21.778Z,100784.34
2022-10-05T01:24:18.178Z,100783.97
2022-10-05T01:27:28.280Z,100786.69
2022-10-05T01:30:04.697Z,100787.66
2022-10-05T01:32:48.540Z,100781.38
2022-10-05T01:35:26.225Z,100781.97
2022-10-05T01:38:43.239Z,100790.13
2022-10-05T01:41:31.744Z,100792.34
2022-10-05T01:44:14.682Z,100802.28
2022-10-05T01:47:15.480Z,100804.75
2022-10-05T01:50:07.042Z,100818.78
2022-10-05T01:53:19.863Z,100811.66
2022-10-05T01:56:06.210Z,100802.53
2022-10-05T01:58:42.646Z,100805.03
2022-10-05T02:01:39.582Z,100810.22
2022-10-05T02:05:03.925Z,100805.81
2022-10-05T02:08:15.040Z,100808.56
2022-10-05T02:11:02.303Z,100819.53
2022-10-05T02:14:01.248Z,100823.16
2022-10-05T02:16:34.172Z,100819.97
2022-10-05T02:19:27.641Z,100808.84
2022-10-05T02:22:37.327Z,100815.97
2022-10-05T02:25:15.464Z,100805.94
2022-10-05T02:27:58.419Z,100799.22
2022-10-05T02:30:25.432Z,100797.22
2022-10-05T02:33:05.715Z,100802.16
2022-10-05T02:35:32.898Z,100798.03
2022-10-05T02:38:34.216Z,100797.47
2022-10-05T02:41:33.317Z,100793.44
2022-10-05T02:44:26.732Z,100796.84
2022-10-05T02:47:28.312Z,100781.53
2022-10-05T02:50:24.394Z,100775.13
2022-10-05T02:52:57.950Z,100769.63
2022-10-05T02:55:35.537Z,100761.69
2022-10-05T02:58:20.003Z,100765.31
2022-10-05T03:01:03.024Z,100762.38
2022-10-05T03:03:59.317Z,100764.16
2022-10-05T03:06:33.048Z,100761.91
2022-10-05T03:09:09.217Z,100769.66
2022-10-05T03:12:04.009Z,100765.00
2022-10-05T03:14:46.673Z,100765.81
2022-10-05T03:17:25.628Z,100765.31
2022-10-05T03:20:20.236Z,100762.44
2022-10-05T03:23:04.698Z,100765.56
2022-10-05T03:25:51.040Z,100764.03
2022-10-05T03:28:26.173Z,100762.63
2022-10-05T03:31:09.712Z,100752.88
2022-10-05T03:33:55.975Z,100749.84
2022-10-05T03:36:58.762Z,100751.91
2022-10-05T03:39:38.953Z,100747.28
2022-10-05T03:42:57.274Z,100737.31
2022-10-05T03:45:48.035Z,100743.56
2022-10-05T03:48:28.875Z,100740.84
2022-10-05T03:51:40.693Z,100742.78
2022-10-05T03:54:19.955Z,100744.81
2022-10-05T03:57:00.795Z,100743.59
2022-10-05T03:59:33.898Z,100747.28
2022-10-05T04:02:06.335Z,100749.94
2022-10-05T04:05:18.494Z,100757.03
2022-10-05T04:08:02.733Z,100751.91
2022-10-05T04:10:44.286Z,100750.22
2022-10-05T04:13:39.915Z,100757.06
2022-10-05T04:16:30.914Z,100760.06
2022-10-05T04:19:38.534Z,100771.28
2022-10-05T04:22:23.648Z,100765.09
2022-10-05T04:25:18.255Z,100763.19
2022-10-05T04:28:31.198Z,100765.56
2022-10-05T04:31:03.362Z,100772.19
2022-10-05T04:33:32.450Z,100763.94
2022-10-05T04:36:15.202Z,100763.81
2022-10-05T04:39:12.965Z,100764.34
2022-10-05T04:42:24.380Z,100766.31
2022-10-05T04:44:58.964Z,100761.75
2022-10-05T04:47:47.882Z,100757.28
2022-10-05T04:50:57.478Z,100764.09
2022-10-05T04:53:40.632Z,100760.06
2022-10-05T04:56:14.440Z,100771.38
2022-10-05T04:59:05.187Z,100770.19
2022-10-05T05:01:50.838Z,100768.53
2022-10-05T05:04:28.488Z,100766.44
2022-10-05T05:07:16.947Z,100770.31
2022-10-05T05:10:59.597Z,100777.47
2022-10-05T05:14:19.927Z,100779.97
2022-10-05T05:17:13.408Z,100785.72
2022-10-05T05:20:02.090Z,100787.63
2022-10-05T05:23:36.323Z,100781.25
2022-10-05T05:26:26.211Z,100783.38
2022-10-05T05:29:06.882Z,100786.63
2022-10-05T05:31:58.972Z,100786.88
2022-10-05T05:34:46.879Z,100791.22
2022-10-05T05:37:34.894Z,100802.19
2022-10-05T05:40:20.318Z,100804.59
2022-10-05T05:43:27.851Z,100807.31
2022-10-05T05:46:02.492Z,100808.66
2022-10-05T05:48:35.282Z,100806.31
2022-10-05T05:51:34.340Z,100810.06
2022-10-05T05:54:16.266Z,100811.94
2022-10-05T05:56:58.141Z,100822.44
2022-10-05T06:00:00.521Z,100823.13
2022-10-05T06:02:49.682Z,100826.53
2022-10-05T06:05:29.125Z,100828.81
2022-10-05T06:08:00.539Z,100832.28
2022-10-05T06:10:41.464Z,100840.91
2022-10-05T06:13:28.198Z,100838.00
2022-10-05T06:16:23.304Z,100843.78
2022-10-05T06:19:06.067Z,100844.84
2022-10-05T06:22:02.335Z,100843.06
2022-10-05T06:25:00.168Z,100844.22
2022-10-05T06:27:55.883Z,100839.63
2022-10-05T06:30:23.515Z,100842.13
2022-10-05T06:32:50.321Z,100844.22
2022-10-05T06:35:38.847Z,100857.03
2022-10-05T06:38:28.875Z,100844.09
2022-10-05T06:41:38.797Z,100839.19
2022-10-05T06:44:40.415Z,100842.06
2022-10-05T06:47:41.749Z,100840.38
2022-10-05T06:50:27.531Z,100842.25
2022-10-05T06:53:24.944Z,100847.59
2022-10-05T06:56:07.863Z,100853.25
2022-10-05T06:59:18.616Z,100849.59
2022-10-05T07:02:19.724Z,100858.41
2022-10-05T07:05:21.636Z,100854.50
2022-10-05T07:07:58.398Z,100856.53
2022-10-05T07:11:03.487Z,100846.28
2022-10-05T07:13:54.621Z,100851.81
2022-10-05T07:16:58.448Z,100855.66
2022-10-05T07:19:54.812Z,100851.09
2022-10-05T07:22:59.924Z,100851.72
2022-10-05T07:25:41.043Z,100851.75
2022-10-05T07:28:29.270Z,100847.91
2022-10-05T07:31:00.896Z,100853.28
2022-10-05T07:33:44.579Z,100858.34
2022-10-05T07:36:43.561Z,100858.25
2022-10-05T07:39:14.791Z,100849.06
2022-10-05T07:41:54.170Z,100855.88
2022-10-05T07:44:43.870Z,100846.84
2022-10-05T07:47:38.023Z,100853.94
2022-10-05T07:50:21.004Z,100852.78
2022-10-05T07:53:28.738Z,100856.09
2022-10-05T07:56:03.075Z,100850.97
2022-10-05T07:58:44.452Z,100851.75
2022-10-05T08:01:25.064Z,100844.66
2022-10-05T08:04:03.445Z,100846.84
2022-10-05T08:06:51.394Z,100834.94
2022-10-05T08:09:55.163Z,100842.31
2022-10-05T08:12:43.674Z,100840.34
2022-10-05T08:15:22.707Z,100845.06
2022-10-05T08:18:05.846Z,100835.69
2022-10-05T08:20:48.737Z,100836.72
2022-10-05T08:23:31.174Z,100832.16
2022-10-05T08:26:29.298Z,100826.13
2022-10-05T08:29:20.691Z,100833.25
2022-10-05T08:31:53.188Z,100834.00
2022-10-05T08:34:31.036Z,100833.84
2022-10-05T08:37:22.377Z,100831.72
2022-10-05T08:40:21.432Z,100828.69
2022-10-05T08:43:03.059Z,100834.03
2022-10-05T08:45:39.498Z,100825.41
2022-10-05T08:48:18.811Z,100829.22
2022-10-05T08:51:22.243Z,100828.41
2022-10-05T08:54:52.389Z,100820.13
2022-10-05T08:58:37.927Z,100813.91
2022-10-05T09:01:04.820Z,100817.66
2022-10-05T09:03:43.524Z,100811.25
2022-10-05T09:06:58.572Z,100806.63
2022-10-05T09:10:01.528Z,100800.00
2022-10-05T09:12:50.224Z,100798.34
2022-10-05T09:16:03.329Z,100794.56
2022-10-05T09:18:39.119Z,100790.50
2022-10-05T09:21:51.850Z,100783.94
2022-10-05T09:24:48.697Z,100788.50
2022-10-05T09:27:25.175Z,100782.84
2022-10-05T09:30:06.456Z,100788.06
2022-10-05T09:32:44.294Z,100783.16
2022-10-05T09:35:46.003Z,100791.13
2022-10-05T09:38:59.933Z,100788.88
2022-10-05T09:42:03.889Z,100771.63
2022-10-05T09:45:21.206Z,100763.72
2022-10-05T09:48:00.665Z,100760.50
2022-10-05T09:50:54.084Z,100759.00
2022-10-05T09:53:34.371Z,100757.81
2022-10-05T09:56:30.456Z,100759.78
2022-10-05T09:59:27.410Z,100759.13
2022-10-05T10:02:14.457Z,100735.25
2022-10-05T10:05:16.099Z,100742.81
2022-10-05T10:08:14.076Z,100740.66
2022-10-05T10:11:15.814Z,100749.94
2022-10-05T10:13:57.914Z,100741.22
2022-10-05T10:16:55.473Z,100734.13
2022-10-05T10:19:53.360Z,100738.34
2022-10-05T10:22:44.819Z,100730.81
2022-10-05T10:25:26.569Z,100726.63
2022-10-05T10:28:13.206Z,100722.03
2022-10-05T10:30:40.121Z,100719.41
2022-10-05T10:33:37.296Z,100723.94
2022-10-05T10:36:32.565Z,100724.34
2022-10-05T10:39:55.957Z,100722.91
2022-10-05T10:42:47.737Z,100712.34
2022-10-05T10:45:17.616Z,100722.34
2022-10-05T10:48:00.514Z,100725.16
2022-10-05T10:51:06.787Z,100725.63
2022-10-05T10:54:20.685Z,100722.78
2022-10-05T10:57:10.012Z,100726.81
2022-10-05T11:00:22.310Z,100723.63
2022-10-05T11:03:26.075Z,100712.22
2022-10-05T11:06:32.838Z,100714.72
2022-10-05T11:09:35.086Z,100710.84
2022-10-05T11:12:22.000Z,100711.66
2022-10-05T11:15:13.319Z,100698.22
2022-10-05T11:18:21.888Z,100701.94
2022-10-05T11:21:06.843Z,100697.81
2022-10-05T11:23:42.618Z,100691.34
2022-10-05T11:26:21.234Z,100692.56
2022-10-05T11:29:54.032Z,100689.69
2022-10-05T11:32:50.344Z,100678.06
2022-10-05T11:35:36.415Z,100681.75
2022-10-05T11:38:37.022Z,100668.50
2022-10-05T11:41:25.955Z,100675.00
2022-10-05T11:44:30.371Z,100657.13
2022-10-05T11:47:15.350Z,100665.25
2022-10-05T11:50:05.665Z,100657.47
2022-10-05T11:53:01.541Z,100655.84
2022-10-05T11:55:45.463Z,100647.63
2022-10-05T11:58:48.253Z,100643.16
2022-10-05T12:01:45.751Z,100640.09
2022-10-05T12:04:47.219Z,100639.28
2022-10-05T12:07:33.797Z,100637.25
2022-10-05T12:10:27.673Z,100625.69
2022-10-05T12:13:42.892Z,100629.81
2022-10-05T12:16:51.331Z,100618.31
2022-10-05T12:19:29.634Z,100606.72
2022-10-05T12:22:32.708Z,100620.00
2022-10-05T12:25:27.811Z,100628.75
2022-10-05T12:28:04.805Z,100619.91
2022-10-05T12:30:54.748Z,100622.66
2022-10-05T12:34:04.929Z,100615.09
2022-10-05T12:37:04.116Z,100608.81
2022-10-05T12:39:49.639Z,100611.22
2022-10-05T12:42:39.386Z,100599.31
2022-10-05T12:45:46.269Z,100610.53
2022-10-05T12:48:29.027Z,100592.97
2022-10-05T12:51:19.084Z,100596.66
2022-10-05T12:54:00.287Z,100597.56
2022-10-05T12:57:01.411Z,100591.16
2022-10-05T12:59:35.922Z,100592.25
2022-10-05T13:02:39.299Z,100588.41
2022-10-05T13:05:09.394Z,100586.50
2022-10-05T13:07:48.173Z,100583.78
2022-10-05T13:10:47.177Z,100581.84
2022-10-05T13:13:36.043Z,100583.38
2022-10-05T13:16:25.568Z,100584.19
2022-10-05T13:19:21.708Z,100583.94
2022-10-05T13:22:28.915Z,100579.44
2022-10-05T13:25:14.196Z,100578.38
2022-10-05T13:27:54.397Z,100571.88
2022-10-05T13:30:22.135Z,100576.78
2022-10-05T13:33:18.073Z,100576.47
2022-10-05T13:35:51.006Z,100571.13
2022-10-05T13:38:54.595Z,100573.13
2022-10-05T13:42:00.520Z,100563.44
2022-10-05T13:44:54.385Z,100567.66
2022-10-05T13:47:46.529Z,100574.72
2022-10-05T13:50:31.207Z,100569.38
2022-10-05T13:53:25.725Z,100564.94
2022-10-05T13:56:01.052Z,100576.44
2022-10-05T13:58:42.954Z,100571.81
2022-10-05T14:01:32.259Z,100564.19
2022-10-05T14:04:16.032Z,100567.31
2022-10-05T14:06:44.469Z,100567.44
2022-10-05T14:09:27.923Z,100553.34
2022-10-05T14:12:04.075Z,100554.09
2022-10-05T14:14:54.590Z,100544.50
2022-10-05T14:17:33.780Z,100560.44
2022-10-05T14:20:13.678Z,100550.50
2022-10-05T14:22:50.019Z,100559.06
2022-10-05T14:25:19.267Z,100555.09
2022-10-05T14:28:01.992Z,100550.41
2022-10-05T14:30:32.122Z,100558.66
2022-10-05T14:33:04.770Z,100553.47
2022-10-05T14:35:49.779Z,100550.81
2022-10-05T14:38:29.750Z,100550.03
2022-10-05T14:41:17.920Z,100543.53
2022-10-05T14:44:09.455Z,100538.69
2022-10-05T14:46:39.380Z,100539.59
2022-10-05T14:49:21.125Z,100540.66
2022-10-05T14:51:53.314Z,100534.00
2022-10-05T14:55:04.413Z,100534.72
2022-10-05T14:57:56.337Z,100530.94
2022-10-05T15:00:24.391Z,100526.69
2022-10-05T15:03:03.584Z,100524.19
2022-10-05T15:05:55.170Z,100527.06
2022-10-05T15:08:55.211Z,100523.56
2022-10-05T15:11:44.849Z,100517.50
2022-10-05T15:14:27.539Z,100516.50
2022-10-05T15:16:59.617Z,100519.16
2022-10-05T15:20:24.567Z,100512.69
2022-10-05T15:23:26.449Z,100529.22
2022-10-05T15:26:17.406Z,100519.84
2022-10-05T15:28:57.375Z,100519.41
2022-10-05T15:31:51.324Z,100525.06
2022-10-05T15:34:45.182Z,100513.03
2022-10-05T15:37:43.101Z,100520.31
2022-10-05T15:40:46.690Z,100510.03
2022-10-05T15:43:19.691Z,100505.50
2022-10-05T15:45:56.530Z,100516.75
2022-10-05T15:49:10.724Z,100509.38
2022-10-05T15:51:50.939Z,100512.31
2022-10-05T15:54:41.886Z,100514.97
2022-10-05T15:57:17.458Z,100503.25
2022-10-05T15:59:56.293Z,100508.91
2022-10-05T16:02:33.403Z,100506.16
2022-10-05T16:05:44.532Z,100514.13
2022-10-05T16:08:51.336Z,100519.94
2022-10-05T16:11:32.233Z,100526.50
2022-10-05T16:14:24.102Z,100522.50
2022-10-05T16:17:15.207Z,100518.88
2022-10-05T16:20:17.294Z,100524.63
2022-10-05T16:23:28.510Z,100523.44
2022-10-05T16:26:14.652Z,100517.75
2022-10-05T16:29:25.039Z,100518.06
2022-10-05T16:32:07.286Z,100525.72
2022-10-05T16:35:17.518Z,100538.78
2022-10-05T16:38:34.535Z,100541.38
2022-10-05T16:41:42.594Z,100551.06
2022-10-05T16:44:45.799Z,100549.41
2022-10-05T16:47:29.076Z,100543.28
2022-10-05T16:50:15.859Z,100558.41
2022-10-05T16:52:49.719Z,100565.56
2022-10-05T16:55:31.616Z,100560.19
2022-10-05T16:58:02.210Z,100570.63
2022-10-05T17:01:00.722Z,100596.63
2022-10-05T17:04:06.898Z,100598.72
2022-10-05T17:07:08.716Z,100606.66
2022-10-05T17:10:08.991Z,100598.41
2022-10-05T17:12:48.256Z,100584.66
2022-10-05T17:15:30.261Z,100587.50
2022-10-05T17:18:23.839Z,100586.72
2022-10-05T17:21:07.979Z,100589.53
2022-10-05T17:24:08.708Z,100592.09
2022-10-05T17:27:02.431Z,100589.88
2022-10-05T17:29:52.644Z,100593.69
2022-10-05T17:32:19.427Z,100599.97
2022-10-05T17:35:01.689Z,100610.84
2022-10-05T17:37:39.746Z,100607.19
2022-10-05T17:40:38.895Z,100618.84
2022-10-05T17:43:28.780Z,100619.94
2022-10-05T17:45:57.536Z,100625.31
2022-10-05T17:49:06.607Z,100634.97
2022-10-05T17:51:51.836Z,100638.72
2022-10-05T17:54:49.000Z,100639.50
2022-10-05T17:57:27.898Z,100643.75
2022-10-05T17:59:58.957Z,100645.75
2022-10-05T18:02:36.908Z,100651.88
2022-10-05T18:05:04.474Z,100666.94
2022-10-05T18:07:36.924Z,100679.66
2022-10-05T18:10:09.962Z,100688.66
2022-10-05T18:12:36.832Z,100683.44
2022-10-05T18:15:41.136Z,100688.00
2022-10-05T18:18:32.821Z,100693.34
2022-10-05T18:21:14.868Z,100677.13
2022-10-05T18:24:01.464Z,100671.38
2022-10-05T18:26:57.282Z,100666.00
2022-10-05T18:30:03.698Z,100662.44
2022-10-05T18:33:07.590Z,100659.28
2022-10-05T18:35:58.027Z,100667.19
2022-10-05T18:39:05.249Z,100668.59
2022-10-05T18:42:30.710Z,100683.75
2022-10-05T18:45:21.908Z,100689.22
2022-10-05T18:49:03.576Z,100692.88
2022-10-05T18:51:51.978Z,100695.25
2022-10-05T18:54:37.150Z,100704.47
2022-10-05T18:57:37.207Z,100705.56
2022-10-05T19:00:22.989Z,100715.56
2022-10-05T19:02:57.156Z,100722.66
2022-10-05T19:05:48.723Z,100723.91
2022-10-05T19:08:44.547Z,100728.75
2022-10-05T19:11:29.874Z,100734.94
2022-10-05T19:14:05.955Z,100733.84
2022-10-05T19:17:21.113Z,100750.00
2022-10-05T19:20:26.532Z,100751.66
2022-10-05T19:23:26.281Z,100758.22
2022-10-05T19:26:14.464Z,100766.53
2022-10-05T19:29:02.319Z,100776.34
2022-10-05T19:31:48.253Z,100781.72
2022-10-05T19:35:19.289Z,100782.78
2022-10-05T19:38:24.107Z,100789.34
2022-10-05T19:41:14.910Z,100797.66
2022-10-05T19:43:45.609Z,100807.06
2022-10-05T19:47:01.001Z,100809.00
2022-10-05T19:49:44.481Z,100818.94
2022-10-05T19:52:21.049Z,100818.28
2022-10-05T19:55:02.367Z,100822.91
2022-10-05T19:57:30.318Z,100822.06
2022-10-05T19:59:59.545Z,100828.47
2022-10-05T20:02:27.921Z,100829.16
2022-10-05T20:05:07.347Z,100828.00
2022-10-05T20:07:34.444Z,100826.16
2022-10-05T20:10:28.293Z,100826.69
2022-10-05T20:12:59.610Z,100838.50
2022-10-05T20:15:53.955Z,100833.09
2022-10-05T20:19:06.703Z,100850.59
2022-10-05T20:21:41.639Z,100852.94
2022-10-05T20:24:11.372Z,100853.72
2022-10-05T20:27:05.615Z,100851.56
2022-10-05T20:29:44.505Z,100858.28
2022-10-05T20:32:18.031Z,100860.25
2022-10-05T20:34:47.296Z,100862.41
2022-10-05T20:37:17.529Z,100862.25
2022-10-05T20:39:44.976Z,100876.22
2022-10-05T20:42:12.066Z,100873.06
2022-10-05T20:44:40.127Z,100873.94
2022-10-05T20:47:09.619Z,100878.03
2022-10-05T20:49:40.989Z,100885.22
2022-10-05T20:52:10.828Z,100890.00
2022-10-05T20:54:39.385Z,100893.94
2022-10-05T20:57:06.927Z,100894.41
2022-10-05T20:59:35.446Z,100897.69
2022-10-05T21:02:03.957Z,100898.69
2022-10-05T21:04:40.254Z,100903.59
2022-10-05T21:07:08.192Z,100909.00
2022-10-05T21:09:37.933Z,100912.94
2022-10-05T21:12:05.018Z,100915.38
2022-10-05T21:14:34.412Z,100909.00
2022-10-05T21:17:02.069Z,100917.84
2022-10-05T21:19:29.796Z,100924.41
2022-10-05T21:22:02.411Z,100912.47
2022-10-05T21:24:29.320Z,100922.31
2022-10-05T21:26:57.521Z,100914.44
2022-10-05T21:29:24.631Z,100914.09
2022-10-05T21:31:51.652Z,100919.50
2022-10-05T21:34:18.835Z,100917.88
2022-10-05T21:36:45.814Z,100920.78
2022-10-05T21:39:12.740Z,100928.50
2022-10-05T21:41:39.771Z,100915.84
2022-10-05T21:44:07.016Z,100918.16
2022-10-05T21:46:36.700Z,100917.31
2022-10-05T21:49:05.932Z,100919.94
2022-10-05T21:51:35.482Z,100921.09
2022-10-05T21:54:15.869Z,100926.69
2022-10-05T21:56:51.066Z,100934.56
2022-10-05T21:59:21.507Z,100921.84
2022-10-05T22:01:48.436Z,100929.63
2022-10-05T22:04:15.408Z,100932.41
2022-10-05T22:06:42.427Z,100937.19
2022-10-05T22:09:09.959Z,100944.38
2022-10-05T22:11:37.001Z,100936.50
2022-10-05T22:14:04.062Z,100937.19
2022-10-05T22:16:34.773Z,100935.41
2022-10-05T22:19:10.316Z,100947.88
2022-10-05T22:21:41.486Z,100944.09
2022-10-05T22:24:11.270Z,100959.22
2022-10-05T22:26:39.768Z,100948.69
2022-10-05T22:29:07.220Z,100961.84
2022-10-05T22:31:34.734Z,100968.41
2022-10-05T22:34:01.783Z,100965.78
2022-10-05T22:36:29.027Z,100975.78
2022-10-05T22:38:56.125Z,100973.66
2022-10-05T22:41:24.094Z,100986.63
2022-10-05T22:43:52.010Z,100985.50
2022-10-05T22:46:19.865Z,100979.06
2022-10-05T22:48:46.821Z,100983.66
2022-10-05T22:51:13.691Z,100990.38
2022-10-05T22:53:40.714Z,100994.50
2022-10-05T22:56:11.151Z,100996.59
2022-10-05T22:58:38.287Z,101004.81
2022-10-05T23:01:11.984Z,101007.09
2022-10-05T23:03:39.183Z,101006.16
2022-10-05T23:06:19.048Z,101010.56
2022-10-05T23:08:46.859Z,101019.25
2022-10-05T23:11:22.596Z,101021.53
2022-10-05T23:13:59.883Z,101016.13
2022-10-05T23:16:29.624Z,101024.16
2022-10-05T23:18:57.296Z,101025.16
2022-10-05T23:21:28.212Z,101028.78
2022-10-05T23:23:55.634Z,101021.88
2022-10-05T23:26:25.568Z,101023.53
2022-10-05T23:28:52.985Z,101021.72
2022-10-05T23:31:23.993Z,101028.75
2022-10-05T23:33:52.692Z,101028.09
2022-10-05T23:36:23.411Z,101032.03
2022-10-05T23:38:50.836Z,101037.63
2022-10-05T23:41:19.652Z,101039.09
2022-10-05T23:43:48.108Z,101040.06
2022-10-05T23:46:15.971Z,101052.00
2022-10-05T23:48:43.024Z,101041.59
2022-10-05T23:51:13.080Z,101049.44
2022-10-05T23:53:40.324Z,101042.56
2022-10-05T23:56:07.576Z,101047.28
2022-10-05T23:58:37.503Z,101049.47
